Aviation Digital Data Service (ADDS)

Output produced by METARs form (1939 UTC 28 March 2017)
found at http://www.aviationweather.gov/adds/metars/
 
KDFW 281848Z 2819/2924 12015KT P6SM VCSH SCT025 BKN035 
     TEMPO 2819/2820 BKN022 
     FM282100 13014KT P6SM VCSH SCT035 BKN060 
     FM290100 14015KT P6SM SCT035 BKN050 
     FM290800 15011KT 4SM -TSRA BKN020 OVC045CB 
     FM291100 16013KT P6SM VCSH BKN050 
     FM291500 19013KT P6SM SCT080 BKN250